sensor_id;sensor_type;location;lat;lon;timestamp;P1;durP1;ratioP1;P2;durP2;ratioP2
84933;SDS011;75195;56.858;41.422;2024-02-21T00:02:10;11.25;;;4.75;;
84933;SDS011;75195;56.858;41.422;2024-02-21T00:04:36;9.27;;;4.82;;
84933;SDS011;75195;56.858;41.422;2024-02-21T00:07:04;10.38;;;4.22;;
84933;SDS011;75195;56.858;41.422;2024-02-21T00:09:31;9.68;;;4.22;;
84933;SDS011;75195;56.858;41.422;2024-02-21T00:11:57;11.70;;;4.60;;
84933;SDS011;75195;56.858;41.422;2024-02-21T00:14:25;9.48;;;4.22;;
84933;SDS011;75195;56.858;41.422;2024-02-21T00:16:52;8.20;;;4.78;;
84933;SDS011;75195;56.858;41.422;2024-02-21T00:19:18;10.82;;;6.05;;
84933;SDS011;75195;56.858;41.422;2024-02-21T00:21:44;10.38;;;5.10;;
84933;SDS011;75195;56.858;41.422;2024-02-21T00:24:11;10.07;;;5.03;;
84933;SDS011;75195;56.858;41.422;2024-02-21T00:26:37;9.15;;;3.97;;
84933;SDS011;75195;56.858;41.422;2024-02-21T00:29:04;7.35;;;4.22;;
84933;SDS011;75195;56.858;41.422;2024-02-21T00:31:31;7.25;;;3.45;;
84933;SDS011;75195;56.858;41.422;2024-02-21T00:33:58;8.43;;;3.83;;
84933;SDS011;75195;56.858;41.422;2024-02-21T00:36:24;11.32;;;4.28;;
84933;SDS011;75195;56.858;41.422;2024-02-21T00:38:50;9.63;;;4.75;;
84933;SDS011;75195;56.858;41.422;2024-02-21T00:41:17;11.35;;;4.70;;
84933;SDS011;75195;56.858;41.422;2024-02-21T00:43:43;8.68;;;4.53;;
84933;SDS011;75195;56.858;41.422;2024-02-21T00:46:10;5.03;;;3.28;;
84933;SDS011;75195;56.858;41.422;2024-02-21T00:48:36;9.95;;;4.88;;
84933;SDS011;75195;56.858;41.422;2024-02-21T00:51:03;9.70;;;4.60;;
84933;SDS011;75195;56.858;41.422;2024-02-21T00:53:29;10.43;;;4.28;;
84933;SDS011;75195;56.858;41.422;2024-02-21T00:55:56;11.25;;;5.32;;
84933;SDS011;75195;56.858;41.422;2024-02-21T00:58:22;9.63;;;4.07;;
84933;SDS011;75195;56.858;41.422;2024-02-21T01:00:49;9.57;;;4.43;;
84933;SDS011;75195;56.858;41.422;2024-02-21T01:03:16;9.02;;;4.65;;
84933;SDS011;75195;56.858;41.422;2024-02-21T01:05:42;8.73;;;4.57;;
84933;SDS011;75195;56.858;41.422;2024-02-21T01:08:08;9.05;;;4.18;;
84933;SDS011;75195;56.858;41.422;2024-02-21T01:10:35;9.15;;;4.20;;
84933;SDS011;75195;56.858;41.422;2024-02-21T01:13:01;9.30;;;4.80;;
84933;SDS011;75195;56.858;41.422;2024-02-21T01:15:28;10.02;;;5.38;;
84933;SDS011;75195;56.858;41.422;2024-02-21T01:17:54;12.27;;;4.85;;
84933;SDS011;75195;56.858;41.422;2024-02-21T01:20:21;8.40;;;4.63;;
84933;SDS011;75195;56.858;41.422;2024-02-21T01:22:47;10.48;;;5.18;;
84933;SDS011;75195;56.858;41.422;2024-02-21T01:25:14;8.90;;;4.15;;
84933;SDS011;75195;56.858;41.422;2024-02-21T01:27:40;8.77;;;4.50;;
84933;SDS011;75195;56.858;41.422;2024-02-21T01:30:07;9.75;;;4.80;;
84933;SDS011;75195;56.858;41.422;2024-02-21T01:32:34;10.60;;;4.75;;
84933;SDS011;75195;56.858;41.422;2024-02-21T01:35:01;12.52;;;5.70;;
84933;SDS011;75195;56.858;41.422;2024-02-21T01:37:29;18.33;;;7.18;;
84933;SDS011;75195;56.858;41.422;2024-02-21T01:39:55;18.38;;;8.00;;
84933;SDS011;75195;56.858;41.422;2024-02-21T01:42:22;21.35;;;9.27;;
84933;SDS011;75195;56.858;41.422;2024-02-21T01:44:48;19.52;;;9.07;;
84933;SDS011;75195;56.858;41.422;2024-02-21T01:47:15;19.77;;;8.73;;
84933;SDS011;75195;56.858;41.422;2024-02-21T01:49:41;20.50;;;10.35;;
84933;SDS011;75195;56.858;41.422;2024-02-21T01:52:08;20.02;;;9.90;;
84933;SDS011;75195;56.858;41.422;2024-02-21T01:54:35;22.42;;;9.88;;
84933;SDS011;75195;56.858;41.422;2024-02-21T01:57:01;18.52;;;9.20;;
84933;SDS011;75195;56.858;41.422;2024-02-21T01:59:28;15.57;;;8.48;;
84933;SDS011;75195;56.858;41.422;2024-02-21T02:01:54;16.25;;;7.05;;
84933;SDS011;75195;56.858;41.422;2024-02-21T02:04:23;15.43;;;8.45;;
84933;SDS011;75195;56.858;41.422;2024-02-21T02:06:50;13.02;;;6.22;;
84933;SDS011;75195;56.858;41.422;2024-02-21T02:09:17;8.88;;;3.80;;
84933;SDS011;75195;56.858;41.422;2024-02-21T02:11:43;7.15;;;3.42;;
84933;SDS011;75195;56.858;41.422;2024-02-21T02:14:10;7.32;;;4.00;;
84933;SDS011;75195;56.858;41.422;2024-02-21T02:16:37;4.65;;;2.65;;
84933;SDS011;75195;56.858;41.422;2024-02-21T02:19:03;9.02;;;4.30;;
84933;SDS011;75195;56.858;41.422;2024-02-21T02:21:30;10.82;;;4.03;;
84933;SDS011;75195;56.858;41.422;2024-02-21T02:23:59;9.70;;;3.67;;
84933;SDS011;75195;56.858;41.422;2024-02-21T02:26:26;8.43;;;3.38;;
84933;SDS011;75195;56.858;41.422;2024-02-21T02:28:53;5.47;;;2.90;;
84933;SDS011;75195;56.858;41.422;2024-02-21T02:31:19;8.90;;;3.67;;
84933;SDS011;75195;56.858;41.422;2024-02-21T02:33:46;5.40;;;2.67;;
84933;SDS011;75195;56.858;41.422;2024-02-21T02:36:13;9.05;;;4.20;;
84933;SDS011;75195;56.858;41.422;2024-02-21T02:38:40;7.88;;;3.95;;
84933;SDS011;75195;56.858;41.422;2024-02-21T02:41:06;9.60;;;4.20;;
84933;SDS011;75195;56.858;41.422;2024-02-21T02:43:33;7.45;;;4.05;;
84933;SDS011;75195;56.858;41.422;2024-02-21T02:45:59;9.02;;;4.13;;
84933;SDS011;75195;56.858;41.422;2024-02-21T02:48:26;7.65;;;4.13;;
84933;SDS011;75195;56.858;41.422;2024-02-21T02:50:52;4.65;;;2.67;;
84933;SDS011;75195;56.858;41.422;2024-02-21T02:53:19;9.35;;;3.88;;
84933;SDS011;75195;56.858;41.422;2024-02-21T02:55:45;9.05;;;3.92;;
84933;SDS011;75195;56.858;41.422;2024-02-21T02:58:12;9.40;;;4.32;;
84933;SDS011;75195;56.858;41.422;2024-02-21T03:00:38;8.80;;;3.95;;
84933;SDS011;75195;56.858;41.422;2024-02-21T03:03:05;9.57;;;3.88;;
84933;SDS011;75195;56.858;41.422;2024-02-21T03:05:32;7.90;;;4.38;;
84933;SDS011;75195;56.858;41.422;2024-02-21T03:07:58;8.80;;;4.68;;
84933;SDS011;75195;56.858;41.422;2024-02-21T03:10:25;6.22;;;3.40;;
84933;SDS011;75195;56.858;41.422;2024-02-21T03:12:51;10.10;;;4.10;;
84933;SDS011;75195;56.858;41.422;2024-02-21T03:15:19;7.93;;;3.75;;
84933;SDS011;75195;56.858;41.422;2024-02-21T03:17:46;7.53;;;4.07;;
84933;SDS011;75195;56.858;41.422;2024-02-21T03:20:13;9.40;;;3.72;;
84933;SDS011;75195;56.858;41.422;2024-02-21T03:22:40;9.43;;;4.93;;
84933;SDS011;75195;56.858;41.422;2024-02-21T03:25:07;7.60;;;3.25;;
84933;SDS011;75195;56.858;41.422;2024-02-21T03:27:39;9.15;;;3.53;;
84933;SDS011;75195;56.858;41.422;2024-02-21T03:30:06;9.25;;;4.20;;
84933;SDS011;75195;56.858;41.422;2024-02-21T03:32:34;6.85;;;3.75;;
84933;SDS011;75195;56.858;41.422;2024-02-21T03:35:01;10.32;;;4.45;;
84933;SDS011;75195;56.858;41.422;2024-02-21T03:37:28;9.45;;;3.53;;
84933;SDS011;75195;56.858;41.422;2024-02-21T03:39:54;12.32;;;4.15;;
84933;SDS011;75195;56.858;41.422;2024-02-21T03:42:21;14.40;;;5.20;;
84933;SDS011;75195;56.858;41.422;2024-02-21T03:44:48;10.48;;;4.40;;
84933;SDS011;75195;56.858;41.422;2024-02-21T03:47:14;6.50;;;2.88;;
84933;SDS011;75195;56.858;41.422;2024-02-21T03:49:41;9.75;;;4.18;;
84933;SDS011;75195;56.858;41.422;2024-02-21T03:52:07;8.65;;;3.58;;
84933;SDS011;75195;56.858;41.422;2024-02-21T03:54:35;6.43;;;3.08;;
84933;SDS011;75195;56.858;41.422;2024-02-21T03:57:02;9.27;;;4.05;;
84933;SDS011;75195;56.858;41.422;2024-02-21T03:59:28;11.52;;;4.45;;
84933;SDS011;75195;56.858;41.422;2024-02-21T04:01:55;10.73;;;4.43;;
84933;SDS011;75195;56.858;41.422;2024-02-21T04:04:21;6.82;;;3.63;;
84933;SDS011;75195;56.858;41.422;2024-02-21T04:06:48;8.55;;;3.47;;
84933;SDS011;75195;56.858;41.422;2024-02-21T04:09:16;8.10;;;4.40;;
84933;SDS011;75195;56.858;41.422;2024-02-21T04:11:43;9.38;;;4.13;;
84933;SDS011;75195;56.858;41.422;2024-02-21T04:14:09;8.32;;;3.45;;
84933;SDS011;75195;56.858;41.422;2024-02-21T04:16:37;7.05;;;3.17;;
84933;SDS011;75195;56.858;41.422;2024-02-21T04:19:05;7.45;;;3.45;;
84933;SDS011;75195;56.858;41.422;2024-02-21T04:21:31;5.03;;;2.67;;
84933;SDS011;75195;56.858;41.422;2024-02-21T04:23:57;6.22;;;3.13;;
84933;SDS011;75195;56.858;41.422;2024-02-21T04:26:24;7.53;;;3.67;;
84933;SDS011;75195;56.858;41.422;2024-02-21T04:28:51;8.18;;;3.78;;
84933;SDS011;75195;56.858;41.422;2024-02-21T04:31:17;8.27;;;3.80;;
84933;SDS011;75195;56.858;41.422;2024-02-21T04:33:43;4.35;;;2.70;;
84933;SDS011;75195;56.858;41.422;2024-02-21T04:36:10;5.60;;;3.08;;
84933;SDS011;75195;56.858;41.422;2024-02-21T04:38:36;6.03;;;3.00;;
84933;SDS011;75195;56.858;41.422;2024-02-21T04:41:04;10.50;;;4.18;;
84933;SDS011;75195;56.858;41.422;2024-02-21T04:43:31;6.22;;;3.22;;
84933;SDS011;75195;56.858;41.422;2024-02-21T04:45:58;5.80;;;3.03;;
84933;SDS011;75195;56.858;41.422;2024-02-21T04:48:24;7.00;;;3.78;;
84933;SDS011;75195;56.858;41.422;2024-02-21T04:50:50;8.85;;;4.20;;
84933;SDS011;75195;56.858;41.422;2024-02-21T04:53:17;6.60;;;3.40;;
84933;SDS011;75195;56.858;41.422;2024-02-21T04:55:44;10.10;;;3.47;;
84933;SDS011;75195;56.858;41.422;2024-02-21T04:58:10;8.57;;;3.63;;
84933;SDS011;75195;56.858;41.422;2024-02-21T05:00:37;8.63;;;4.22;;
84933;SDS011;75195;56.858;41.422;2024-02-21T05:03:03;9.75;;;4.57;;
84933;SDS011;75195;56.858;41.422;2024-02-21T05:05:31;8.57;;;4.32;;
84933;SDS011;75195;56.858;41.422;2024-02-21T05:07:57;8.68;;;3.67;;
84933;SDS011;75195;56.858;41.422;2024-02-21T05:10:24;9.65;;;4.95;;
84933;SDS011;75195;56.858;41.422;2024-02-21T05:12:50;6.95;;;4.35;;
84933;SDS011;75195;56.858;41.422;2024-02-21T05:15:17;9.00;;;4.68;;
84933;SDS011;75195;56.858;41.422;2024-02-21T05:17:43;10.60;;;4.30;;
84933;SDS011;75195;56.858;41.422;2024-02-21T05:20:10;9.10;;;4.30;;
84933;SDS011;75195;56.858;41.422;2024-02-21T05:22:37;8.50;;;4.40;;
84933;SDS011;75195;56.858;41.422;2024-02-21T05:25:03;9.30;;;3.92;;
84933;SDS011;75195;56.858;41.422;2024-02-21T05:27:30;7.70;;;4.10;;
84933;SDS011;75195;56.858;41.422;2024-02-21T05:29:57;11.75;;;4.45;;
84933;SDS011;75195;56.858;41.422;2024-02-21T05:32:25;7.88;;;3.60;;
84933;SDS011;75195;56.858;41.422;2024-02-21T05:34:52;8.32;;;3.70;;
84933;SDS011;75195;56.858;41.422;2024-02-21T05:37:18;9.85;;;4.80;;
84933;SDS011;75195;56.858;41.422;2024-02-21T05:39:45;8.70;;;4.53;;
84933;SDS011;75195;56.858;41.422;2024-02-21T05:42:12;8.88;;;4.68;;
84933;SDS011;75195;56.858;41.422;2024-02-21T05:44:38;10.18;;;4.85;;
84933;SDS011;75195;56.858;41.422;2024-02-21T05:47:05;9.32;;;5.00;;
84933;SDS011;75195;56.858;41.422;2024-02-21T05:49:36;8.93;;;4.93;;
84933;SDS011;75195;56.858;41.422;2024-02-21T05:52:03;13.07;;;6.40;;
84933;SDS011;75195;56.858;41.422;2024-02-21T05:54:29;11.48;;;6.82;;
84933;SDS011;75195;56.858;41.422;2024-02-21T05:56:56;14.27;;;8.48;;
84933;SDS011;75195;56.858;41.422;2024-02-21T05:59:23;11.70;;;7.00;;
84933;SDS011;75195;56.858;41.422;2024-02-21T06:01:56;16.52;;;8.18;;
84933;SDS011;75195;56.858;41.422;2024-02-21T06:04:23;18.73;;;9.43;;
84933;SDS011;75195;56.858;41.422;2024-02-21T06:06:50;16.48;;;8.50;;
84933;SDS011;75195;56.858;41.422;2024-02-21T06:09:17;16.10;;;7.05;;
84933;SDS011;75195;56.858;41.422;2024-02-21T06:11:43;17.50;;;8.70;;
84933;SDS011;75195;56.858;41.422;2024-02-21T06:14:12;9.65;;;5.28;;
84933;SDS011;75195;56.858;41.422;2024-02-21T06:16:39;9.98;;;5.55;;
84933;SDS011;75195;56.858;41.422;2024-02-21T06:19:05;8.98;;;4.30;;
84933;SDS011;75195;56.858;41.422;2024-02-21T06:21:32;12.30;;;4.88;;
84933;SDS011;75195;56.858;41.422;2024-02-21T06:23:58;8.65;;;4.13;;
84933;SDS011;75195;56.858;41.422;2024-02-21T06:26:24;7.18;;;3.33;;
84933;SDS011;75195;56.858;41.422;2024-02-21T06:28:51;6.78;;;3.80;;
84933;SDS011;75195;56.858;41.422;2024-02-21T06:31:18;8.73;;;3.72;;
84933;SDS011;75195;56.858;41.422;2024-02-21T06:33:44;7.90;;;3.85;;
84933;SDS011;75195;56.858;41.422;2024-02-21T06:36:11;12.10;;;5.60;;
84933;SDS011;75195;56.858;41.422;2024-02-21T06:38:39;19.58;;;8.40;;
84933;SDS011;75195;56.858;41.422;2024-02-21T06:41:14;12.25;;;7.60;;
84933;SDS011;75195;56.858;41.422;2024-02-21T06:43:45;14.55;;;6.63;;
84933;SDS011;75195;56.858;41.422;2024-02-21T06:46:12;12.73;;;7.88;;
84933;SDS011;75195;56.858;41.422;2024-02-21T06:48:38;22.40;;;8.93;;
84933;SDS011;75195;56.858;41.422;2024-02-21T06:51:04;11.65;;;5.97;;
84933;SDS011;75195;56.858;41.422;2024-02-21T06:53:31;12.63;;;5.07;;
84933;SDS011;75195;56.858;41.422;2024-02-21T06:55:57;8.57;;;4.50;;
84933;SDS011;75195;56.858;41.422;2024-02-21T06:58:24;7.32;;;3.70;;
84933;SDS011;75195;56.858;41.422;2024-02-21T07:00:50;10.48;;;3.08;;
84933;SDS011;75195;56.858;41.422;2024-02-21T07:03:17;4.32;;;2.80;;
84933;SDS011;75195;56.858;41.422;2024-02-21T07:05:43;3.92;;;2.22;;
84933;SDS011;75195;56.858;41.422;2024-02-21T07:08:09;5.20;;;2.85;;
84933;SDS011;75195;56.858;41.422;2024-02-21T07:10:36;5.70;;;3.17;;
84933;SDS011;75195;56.858;41.422;2024-02-21T07:13:02;4.00;;;2.50;;
84933;SDS011;75195;56.858;41.422;2024-02-21T07:15:29;4.40;;;2.63;;
84933;SDS011;75195;56.858;41.422;2024-02-21T07:17:56;4.07;;;2.42;;
84933;SDS011;75195;56.858;41.422;2024-02-21T07:20:23;6.82;;;2.40;;
84933;SDS011;75195;56.858;41.422;2024-02-21T07:22:50;7.22;;;2.13;;
84933;SDS011;75195;56.858;41.422;2024-02-21T07:25:16;6.28;;;4.53;;
84933;SDS011;75195;56.858;41.422;2024-02-21T07:27:43;10.68;;;7.63;;
84933;SDS011;75195;56.858;41.422;2024-02-21T07:30:10;15.65;;;7.63;;
84933;SDS011;75195;56.858;41.422;2024-02-21T07:32:37;12.27;;;6.97;;
84933;SDS011;75195;56.858;41.422;2024-02-21T07:35:04;13.75;;;7.18;;
84933;SDS011;75195;56.858;41.422;2024-02-21T07:37:31;8.00;;;5.18;;
84933;SDS011;75195;56.858;41.422;2024-02-21T07:39:58;10.43;;;6.30;;
84933;SDS011;75195;56.858;41.422;2024-02-21T07:42:25;11.20;;;6.18;;
84933;SDS011;75195;56.858;41.422;2024-02-21T07:44:51;9.00;;;6.05;;
84933;SDS011;75195;56.858;41.422;2024-02-21T07:47:18;7.88;;;4.80;;
84933;SDS011;75195;56.858;41.422;2024-02-21T07:49:44;11.35;;;6.20;;
84933;SDS011;75195;56.858;41.422;2024-02-21T07:52:12;8.73;;;6.32;;
84933;SDS011;75195;56.858;41.422;2024-02-21T07:54:38;10.07;;;6.35;;
84933;SDS011;75195;56.858;41.422;2024-02-21T07:57:04;6.20;;;3.67;;
84933;SDS011;75195;56.858;41.422;2024-02-21T07:59:31;8.63;;;4.95;;
84933;SDS011;75195;56.858;41.422;2024-02-21T08:01:57;6.25;;;4.18;;
84933;SDS011;75195;56.858;41.422;2024-02-21T08:04:24;7.85;;;4.32;;
84933;SDS011;75195;56.858;41.422;2024-02-21T08:06:54;11.57;;;4.63;;
84933;SDS011;75195;56.858;41.422;2024-02-21T08:09:27;7.70;;;5.22;;
84933;SDS011;75195;56.858;41.422;2024-02-21T08:11:54;17.77;;;5.13;;
84933;SDS011;75195;56.858;41.422;2024-02-21T08:14:21;8.00;;;4.13;;
84933;SDS011;75195;56.858;41.422;2024-02-21T08:16:48;11.45;;;4.15;;
84933;SDS011;75195;56.858;41.422;2024-02-21T08:19:14;8.43;;;4.65;;
84933;SDS011;75195;56.858;41.422;2024-02-21T08:21:41;8.13;;;4.65;;
84933;SDS011;75195;56.858;41.422;2024-02-21T08:24:08;12.57;;;5.68;;
84933;SDS011;75195;56.858;41.422;2024-02-21T08:26:34;9.38;;;4.70;;
84933;SDS011;75195;56.858;41.422;2024-02-21T08:29:02;10.10;;;4.60;;
84933;SDS011;75195;56.858;41.422;2024-02-21T08:31:28;18.00;;;7.90;;
84933;SDS011;75195;56.858;41.422;2024-02-21T08:33:57;9.32;;;5.28;;
84933;SDS011;75195;56.858;41.422;2024-02-21T08:36:31;13.50;;;6.88;;
84933;SDS011;75195;56.858;41.422;2024-02-21T08:38:58;8.80;;;5.03;;
84933;SDS011;75195;56.858;41.422;2024-02-21T08:41:25;9.77;;;4.50;;
84933;SDS011;75195;56.858;41.422;2024-02-21T08:43:52;6.60;;;4.13;;
84933;SDS011;75195;56.858;41.422;2024-02-21T08:46:20;7.35;;;4.40;;
84933;SDS011;75195;56.858;41.422;2024-02-21T08:48:47;7.32;;;4.65;;
84933;SDS011;75195;56.858;41.422;2024-02-21T08:51:13;7.43;;;3.55;;
84933;SDS011;75195;56.858;41.422;2024-02-21T08:53:40;7.30;;;3.65;;
84933;SDS011;75195;56.858;41.422;2024-02-21T08:56:06;9.07;;;4.25;;
84933;SDS011;75195;56.858;41.422;2024-02-21T08:58:36;7.80;;;4.05;;
84933;SDS011;75195;56.858;41.422;2024-02-21T09:01:03;14.98;;;7.75;;
84933;SDS011;75195;56.858;41.422;2024-02-21T09:03:33;17.95;;;6.85;;
84933;SDS011;75195;56.858;41.422;2024-02-21T09:06:00;15.32;;;7.88;;
84933;SDS011;75195;56.858;41.422;2024-02-21T09:08:26;24.98;;;9.43;;
84933;SDS011;75195;56.858;41.422;2024-02-21T09:10:53;10.68;;;5.68;;
84933;SDS011;75195;56.858;41.422;2024-02-21T09:13:19;16.10;;;10.75;;
84933;SDS011;75195;56.858;41.422;2024-02-21T09:15:46;19.52;;;11.70;;
84933;SDS011;75195;56.858;41.422;2024-02-21T09:18:13;17.75;;;10.93;;
84933;SDS011;75195;56.858;41.422;2024-02-21T09:20:40;14.63;;;8.15;;
84933;SDS011;75195;56.858;41.422;2024-02-21T09:23:07;16.15;;;9.40;;
84933;SDS011;75195;56.858;41.422;2024-02-21T09:25:33;15.02;;;7.95;;
84933;SDS011;75195;56.858;41.422;2024-02-21T09:28:00;12.48;;;5.57;;
84933;SDS011;75195;56.858;41.422;2024-02-21T09:30:28;12.43;;;8.77;;
84933;SDS011;75195;56.858;41.422;2024-02-21T09:32:55;15.88;;;8.63;;
84933;SDS011;75195;56.858;41.422;2024-02-21T09:35:24;10.07;;;6.28;;
84933;SDS011;75195;56.858;41.422;2024-02-21T09:37:52;16.48;;;8.85;;
84933;SDS011;75195;56.858;41.422;2024-02-21T09:40:19;15.88;;;9.88;;
84933;SDS011;75195;56.858;41.422;2024-02-21T09:42:46;13.43;;;8.95;;
84933;SDS011;75195;56.858;41.422;2024-02-21T09:45:16;17.05;;;9.93;;
84933;SDS011;75195;56.858;41.422;2024-02-21T09:47:59;13.43;;;7.88;;
84933;SDS011;75195;56.858;41.422;2024-02-21T09:50:38;7.05;;;3.90;;
84933;SDS011;75195;56.858;41.422;2024-02-21T09:53:06;14.38;;;9.45;;
84933;SDS011;75195;56.858;41.422;2024-02-21T09:55:33;12.55;;;8.13;;
84933;SDS011;75195;56.858;41.422;2024-02-21T09:58:03;14.55;;;8.30;;
84933;SDS011;75195;56.858;41.422;2024-02-21T10:00:45;11.45;;;6.00;;
84933;SDS011;75195;56.858;41.422;2024-02-21T10:03:12;8.02;;;4.80;;
84933;SDS011;75195;56.858;41.422;2024-02-21T10:05:39;7.55;;;5.40;;
84933;SDS011;75195;56.858;41.422;2024-02-21T10:08:13;5.60;;;4.10;;
84933;SDS011;75195;56.858;41.422;2024-02-21T10:10:43;8.45;;;4.22;;
84933;SDS011;75195;56.858;41.422;2024-02-21T10:13:11;4.13;;;2.58;;
84933;SDS011;75195;56.858;41.422;2024-02-21T10:16:00;5.93;;;3.65;;
84933;SDS011;75195;56.858;41.422;2024-02-21T10:18:27;7.15;;;3.47;;
84933;SDS011;75195;56.858;41.422;2024-02-21T10:21:01;6.28;;;3.80;;
84933;SDS011;75195;56.858;41.422;2024-02-21T10:23:44;6.85;;;3.63;;
84933;SDS011;75195;56.858;41.422;2024-02-21T10:26:17;5.88;;;2.95;;
84933;SDS011;75195;56.858;41.422;2024-02-21T10:28:45;3.70;;;2.65;;
84933;SDS011;75195;56.858;41.422;2024-02-21T10:31:31;3.55;;;1.98;;
84933;SDS011;75195;56.858;41.422;2024-02-21T10:33:58;3.58;;;2.08;;
84933;SDS011;75195;56.858;41.422;2024-02-21T10:36:25;6.70;;;3.08;;
84933;SDS011;75195;56.858;41.422;2024-02-21T10:38:52;5.50;;;2.92;;
84933;SDS011;75195;56.858;41.422;2024-02-21T10:41:20;8.23;;;3.58;;
84933;SDS011;75195;56.858;41.422;2024-02-21T10:43:51;5.80;;;3.13;;
84933;SDS011;75195;56.858;41.422;2024-02-21T10:46:22;7.60;;;3.53;;
84933;SDS011;75195;56.858;41.422;2024-02-21T10:51:29;6.60;;;3.22;;
84933;SDS011;75195;56.858;41.422;2024-02-21T10:56:45;8.23;;;3.22;;
84933;SDS011;75195;56.858;41.422;2024-02-21T10:59:12;10.60;;;3.33;;
84933;SDS011;75195;56.858;41.422;2024-02-21T11:01:39;7.20;;;3.85;;
84933;SDS011;75195;56.858;41.422;2024-02-21T11:04:06;8.10;;;3.33;;
84933;SDS011;75195;56.858;41.422;2024-02-21T11:06:34;8.40;;;3.13;;
84933;SDS011;75195;56.858;41.422;2024-02-21T11:09:05;6.78;;;3.65;;
84933;SDS011;75195;56.858;41.422;2024-02-21T11:14:09;5.82;;;3.75;;
84933;SDS011;75195;56.858;41.422;2024-02-21T11:16:46;6.25;;;3.45;;
84933;SDS011;75195;56.858;41.422;2024-02-21T11:19:19;5.18;;;3.15;;
84933;SDS011;75195;56.858;41.422;2024-02-21T11:21:50;13.05;;;8.57;;
84933;SDS011;75195;56.858;41.422;2024-02-21T11:24:29;10.35;;;7.18;;
84933;SDS011;75195;56.858;41.422;2024-02-21T11:27:07;8.50;;;6.07;;
84933;SDS011;75195;56.858;41.422;2024-02-21T11:32:16;13.63;;;3.30;;
84933;SDS011;75195;56.858;41.422;2024-02-21T11:34:54;7.80;;;3.83;;
84933;SDS011;75195;56.858;41.422;2024-02-21T11:37:36;9.00;;;4.00;;
84933;SDS011;75195;56.858;41.422;2024-02-21T11:40:06;5.43;;;3.53;;
84933;SDS011;75195;56.858;41.422;2024-02-21T11:42:36;6.80;;;4.97;;
84933;SDS011;75195;56.858;41.422;2024-02-21T11:45:03;6.10;;;3.38;;
84933;SDS011;75195;56.858;41.422;2024-02-21T11:47:33;3.72;;;2.53;;
84933;SDS011;75195;56.858;41.422;2024-02-21T11:49:59;7.25;;;3.78;;
84933;SDS011;75195;56.858;41.422;2024-02-21T11:52:26;10.43;;;6.35;;
84933;SDS011;75195;56.858;41.422;2024-02-21T11:54:54;14.15;;;9.50;;
84933;SDS011;75195;56.858;41.422;2024-02-21T11:57:23;10.55;;;5.85;;
84933;SDS011;75195;56.858;41.422;2024-02-21T11:59:53;7.85;;;4.97;;
84933;SDS011;75195;56.858;41.422;2024-02-21T12:02:20;9.32;;;5.78;;
84933;SDS011;75195;56.858;41.422;2024-02-21T12:04:47;6.60;;;4.88;;
84933;SDS011;75195;56.858;41.422;2024-02-21T12:07:15;8.00;;;6.28;;
84933;SDS011;75195;56.858;41.422;2024-02-21T12:09:41;6.05;;;3.72;;
84933;SDS011;75195;56.858;41.422;2024-02-21T12:12:08;5.07;;;4.28;;
84933;SDS011;75195;56.858;41.422;2024-02-21T12:14:34;6.75;;;5.18;;
84933;SDS011;75195;56.858;41.422;2024-02-21T12:17:02;9.68;;;5.10;;
84933;SDS011;75195;56.858;41.422;2024-02-21T12:19:32;8.18;;;3.63;;
84933;SDS011;75195;56.858;41.422;2024-02-21T12:21:59;5.05;;;3.22;;
84933;SDS011;75195;56.858;41.422;2024-02-21T12:24:27;6.40;;;3.85;;
84933;SDS011;75195;56.858;41.422;2024-02-21T12:26:55;9.10;;;5.30;;
84933;SDS011;75195;56.858;41.422;2024-02-21T12:29:22;9.32;;;5.22;;
84933;SDS011;75195;56.858;41.422;2024-02-21T12:31:52;8.18;;;4.60;;
84933;SDS011;75195;56.858;41.422;2024-02-21T12:34:20;6.57;;;3.53;;
84933;SDS011;75195;56.858;41.422;2024-02-21T12:36:48;6.30;;;3.28;;
84933;SDS011;75195;56.858;41.422;2024-02-21T12:39:15;6.53;;;4.00;;
84933;SDS011;75195;56.858;41.422;2024-02-21T12:41:42;5.32;;;3.20;;
84933;SDS011;75195;56.858;41.422;2024-02-21T12:44:11;3.83;;;2.25;;
84933;SDS011;75195;56.858;41.422;2024-02-21T12:46:38;4.47;;;2.55;;
84933;SDS011;75195;56.858;41.422;2024-02-21T12:49:06;5.45;;;2.75;;
84933;SDS011;75195;56.858;41.422;2024-02-21T12:51:35;6.15;;;3.17;;
84933;SDS011;75195;56.858;41.422;2024-02-21T12:54:02;4.15;;;2.42;;
84933;SDS011;75195;56.858;41.422;2024-02-21T12:56:29;3.10;;;1.95;;
84933;SDS011;75195;56.858;41.422;2024-02-21T12:58:58;3.63;;;2.15;;
84933;SDS011;75195;56.858;41.422;2024-02-21T13:01:25;5.18;;;2.78;;
84933;SDS011;75195;56.858;41.422;2024-02-21T13:03:52;10.88;;;4.88;;
84933;SDS011;75195;56.858;41.422;2024-02-21T13:06:20;4.30;;;2.53;;
84933;SDS011;75195;56.858;41.422;2024-02-21T13:08:46;8.35;;;4.55;;
84933;SDS011;75195;56.858;41.422;2024-02-21T13:11:13;3.20;;;2.53;;
84933;SDS011;75195;56.858;41.422;2024-02-21T13:13:39;4.97;;;2.70;;
84933;SDS011;75195;56.858;41.422;2024-02-21T13:16:06;7.80;;;2.78;;
84933;SDS011;75195;56.858;41.422;2024-02-21T13:18:34;3.67;;;2.25;;
84933;SDS011;75195;56.858;41.422;2024-02-21T13:21:01;6.05;;;2.67;;
84933;SDS011;75195;56.858;41.422;2024-02-21T13:23:28;5.35;;;2.50;;
84933;SDS011;75195;56.858;41.422;2024-02-21T13:25:54;6.05;;;3.30;;
84933;SDS011;75195;56.858;41.422;2024-02-21T13:28:21;4.43;;;2.70;;
84933;SDS011;75195;56.858;41.422;2024-02-21T13:30:47;4.72;;;2.58;;
84933;SDS011;75195;56.858;41.422;2024-02-21T13:33:14;4.75;;;2.75;;
84933;SDS011;75195;56.858;41.422;2024-02-21T13:35:40;5.22;;;3.25;;
84933;SDS011;75195;56.858;41.422;2024-02-21T13:38:07;3.22;;;2.17;;
84933;SDS011;75195;56.858;41.422;2024-02-21T13:40:36;4.20;;;2.28;;
84933;SDS011;75195;56.858;41.422;2024-02-21T13:43:02;11.05;;;3.65;;
84933;SDS011;75195;56.858;41.422;2024-02-21T13:45:29;12.63;;;4.88;;
84933;SDS011;75195;56.858;41.422;2024-02-21T13:47:56;4.35;;;2.78;;
84933;SDS011;75195;56.858;41.422;2024-02-21T13:50:27;4.55;;;3.53;;
84933;SDS011;75195;56.858;41.422;2024-02-21T13:52:56;9.90;;;4.60;;
84933;SDS011;75195;56.858;41.422;2024-02-21T13:55:23;8.45;;;4.70;;
84933;SDS011;75195;56.858;41.422;2024-02-21T13:57:52;5.38;;;3.47;;
84933;SDS011;75195;56.858;41.422;2024-02-21T14:00:18;7.35;;;4.93;;
84933;SDS011;75195;56.858;41.422;2024-02-21T14:02:46;8.73;;;5.03;;
84933;SDS011;75195;56.858;41.422;2024-02-21T14:05:12;11.27;;;5.32;;
84933;SDS011;75195;56.858;41.422;2024-02-21T14:07:40;12.68;;;6.68;;
84933;SDS011;75195;56.858;41.422;2024-02-21T14:10:07;13.23;;;8.32;;
84933;SDS011;75195;56.858;41.422;2024-02-21T14:12:35;13.27;;;7.18;;
84933;SDS011;75195;56.858;41.422;2024-02-21T14:15:01;7.55;;;4.53;;
84933;SDS011;75195;56.858;41.422;2024-02-21T14:17:29;8.95;;;5.70;;
84933;SDS011;75195;56.858;41.422;2024-02-21T14:19:55;5.35;;;3.78;;
84933;SDS011;75195;56.858;41.422;2024-02-21T14:22:22;7.30;;;4.35;;
84933;SDS011;75195;56.858;41.422;2024-02-21T14:24:48;8.95;;;5.88;;
84933;SDS011;75195;56.858;41.422;2024-02-21T14:27:15;9.52;;;4.90;;
84933;SDS011;75195;56.858;41.422;2024-02-21T14:29:41;10.57;;;4.88;;
84933;SDS011;75195;56.858;41.422;2024-02-21T14:32:09;5.18;;;2.90;;
84933;SDS011;75195;56.858;41.422;2024-02-21T14:34:36;5.07;;;2.22;;
84933;SDS011;75195;56.858;41.422;2024-02-21T14:37:03;6.72;;;3.60;;
84933;SDS011;75195;56.858;41.422;2024-02-21T14:39:30;7.85;;;4.22;;
84933;SDS011;75195;56.858;41.422;2024-02-21T14:41:56;10.98;;;4.78;;
84933;SDS011;75195;56.858;41.422;2024-02-21T14:44:23;5.57;;;2.80;;